createdAt,value
2018-01-02T00:01:07.375Z,1.00
2018-01-02T00:03:35.635Z,1.20
2018-01-02T00:06:03.776Z,0.90
2018-01-02T00:08:31.956Z,0.80
2018-01-02T00:11:00.101Z,0.80
2018-01-02T00:13:28.347Z,1.00
2018-01-02T00:15:56.532Z,0.80
2018-01-02T00:18:24.696Z,0.90
2018-01-02T00:20:52.869Z,0.80
2018-01-02T00:23:21.047Z,0.90
2018-01-02T00:25:49.976Z,0.80
2018-01-02T00:28:18.115Z,0.80
2018-01-02T00:30:47.006Z,0.90
2018-01-02T00:33:15.172Z,0.90
2018-01-02T00:35:44.070Z,0.87
2018-01-02T00:38:12.197Z,1.00
2018-01-02T00:40:41.852Z,0.80
2018-01-02T00:43:09.956Z,0.90
2018-01-02T00:45:38.105Z,1.10
2018-01-02T00:48:06.320Z,0.90
2018-01-02T00:50:35.513Z,0.90
2018-01-02T00:53:03.653Z,0.90
2018-01-02T00:55:31.760Z,0.90
2018-01-02T00:57:59.905Z,1.17
2018-01-02T01:00:28.036Z,0.90
2018-01-02T01:02:56.172Z,0.90
2018-01-02T01:05:24.297Z,0.80
2018-01-02T01:07:52.441Z,0.90
2018-01-02T01:10:20.560Z,0.90
2018-01-02T01:12:49.453Z,0.80
2018-01-02T01:15:17.574Z,0.90
2018-01-02T01:17:45.720Z,0.93
2018-01-02T01:20:13.838Z,1.10
2018-01-02T01:22:41.968Z,0.90
2018-01-02T01:25:10.076Z,1.20
2018-01-02T01:27:38.190Z,1.10
2018-01-02T01:30:06.320Z,1.00
2018-01-02T01:32:34.436Z,1.10
2018-01-02T01:35:02.568Z,3.43
2018-01-02T01:37:30.707Z,1.20
2018-01-02T01:39:59.682Z,1.17
2018-01-02T01:42:27.848Z,1.10
2018-01-02T01:44:55.989Z,1.30
2018-01-02T01:47:24.149Z,1.30
2018-01-02T01:49:52.403Z,1.33
2018-01-02T01:52:20.512Z,1.30
2018-01-02T01:54:48.652Z,1.50
2018-01-02T01:57:16.781Z,1.30
2018-01-02T01:59:44.901Z,1.30
2018-01-02T02:02:13.033Z,1.47
2018-01-02T02:04:41.153Z,2.17
2018-01-02T02:07:09.302Z,1.70
2018-01-02T02:09:37.684Z,2.23
2018-01-02T02:12:05.846Z,1.80
2018-01-02T02:14:34.769Z,1.97
2018-01-02T02:17:02.920Z,2.20
2018-01-02T02:19:31.037Z,2.63
2018-01-02T02:21:59.194Z,2.20
2018-01-02T02:24:27.314Z,3.77
2018-01-02T02:26:56.225Z,1.87
2018-01-02T02:29:24.345Z,2.40
2018-01-02T02:31:52.468Z,2.93
2018-01-02T02:34:20.612Z,2.30
2018-01-02T02:36:49.505Z,2.23
2018-01-02T02:39:17.629Z,2.57
2018-01-02T02:41:45.735Z,2.20
2018-01-02T02:44:13.860Z,2.87
2018-01-02T02:46:41.985Z,2.70
2018-01-02T02:49:10.112Z,2.33
2018-01-02T02:51:38.232Z,2.60
2018-01-02T02:54:07.144Z,2.80
2018-01-02T02:56:35.265Z,2.70
2018-01-02T02:59:03.413Z,2.47
2018-01-02T03:01:31.548Z,2.40
2018-01-02T03:03:59.678Z,3.00
2018-01-02T03:06:27.809Z,2.77
2018-01-02T03:08:55.932Z,2.60
2018-01-02T03:11:24.057Z,2.30
2018-01-02T03:13:52.180Z,2.70
2018-01-02T03:16:20.330Z,2.37
2018-01-02T03:18:49.228Z,2.00
2018-01-02T03:21:18.125Z,2.77
2018-01-02T03:23:46.259Z,3.50
2018-01-02T03:26:14.428Z,2.30
2018-01-02T03:28:42.565Z,3.28
2018-01-02T03:31:11.458Z,2.30
2018-01-02T03:33:40.354Z,2.27
2018-01-02T03:36:08.595Z,2.57
2018-01-02T03:38:36.741Z,2.60
2018-01-02T03:41:04.902Z,2.22
2018-01-02T03:43:33.024Z,3.93
2018-01-02T03:46:01.147Z,2.20
2018-01-02T03:48:29.293Z,3.20
2018-01-02T03:50:57.420Z,2.90
2018-01-02T03:53:25.564Z,2.30
2018-01-02T03:55:53.689Z,2.10
2018-01-02T03:58:22.569Z,2.83
2018-01-02T04:00:51.486Z,2.75
2018-01-02T04:03:19.613Z,1.98
2018-01-02T04:05:47.752Z,1.77
2018-01-02T04:08:15.866Z,2.87
2018-01-02T04:10:44.856Z,1.70
2018-01-02T04:13:13.329Z,3.50
2018-01-02T04:15:41.459Z,3.57
2018-01-02T04:18:09.580Z,1.70
2018-01-02T04:20:38.483Z,1.80
2018-01-02T04:23:06.596Z,4.63
2018-01-02T04:25:34.876Z,2.13
2018-01-02T04:28:03.100Z,4.57
2018-01-02T04:30:32.011Z,1.92
2018-01-02T04:33:00.142Z,1.73
2018-01-02T04:35:28.273Z,2.05
2018-01-02T04:38:06.072Z,1.77
2018-01-02T04:40:34.217Z,2.22
2018-01-02T04:43:02.353Z,3.50
2018-01-02T04:45:30.472Z,1.90
2018-01-02T04:47:58.624Z,4.05
2018-01-02T04:50:26.755Z,2.90
2018-01-02T04:52:54.880Z,1.87
2018-01-02T04:55:23.070Z,1.93
2018-01-02T04:57:52.713Z,2.28
2018-01-02T05:00:20.837Z,1.75
2018-01-02T05:02:48.952Z,4.10
2018-01-02T05:05:17.094Z,1.52
2018-01-02T05:07:45.204Z,2.03
2018-01-02T05:10:14.105Z,2.42
2018-01-02T05:12:42.250Z,2.60
2018-01-02T05:15:10.384Z,1.90
2018-01-02T05:17:38.501Z,3.95
2018-01-02T05:20:06.645Z,2.47
2018-01-02T05:22:34.766Z,1.30
2018-01-02T05:25:03.668Z,3.77
2018-01-02T05:27:32.564Z,2.20
2018-01-02T05:30:00.694Z,2.00
2018-01-02T05:32:28.828Z,2.50
2018-01-02T05:34:56.981Z,2.10
2018-01-02T05:37:25.125Z,2.17
2018-01-02T05:39:54.010Z,4.03
2018-01-02T05:42:22.913Z,2.47
2018-01-02T05:44:51.061Z,1.35
2018-01-02T05:47:19.212Z,3.20
2018-01-02T05:49:47.333Z,1.37
2018-01-02T05:52:15.453Z,2.35
2018-01-02T05:54:44.365Z,3.03
2018-01-02T05:57:12.504Z,4.80
2018-01-02T05:59:40.641Z,3.25
2018-01-02T06:02:08.770Z,2.20
2018-01-02T06:04:36.921Z,2.70
2018-01-02T06:07:05.065Z,2.78
2018-01-02T06:09:33.222Z,1.80
2018-01-02T06:12:01.366Z,2.63
2018-01-02T06:14:29.504Z,3.00
2018-01-02T06:16:57.627Z,4.40
2018-01-02T06:19:25.754Z,1.92
2018-01-02T06:21:54.665Z,1.70
2018-01-02T06:24:22.786Z,7.20
2018-01-02T06:26:50.925Z,1.95
2018-01-02T06:29:19.806Z,3.08
2018-01-02T06:31:49.070Z,2.25
2018-01-02T06:34:17.181Z,3.83
2018-01-02T06:36:45.317Z,4.10
2018-01-02T06:39:13.442Z,2.28
2018-01-02T06:41:41.581Z,1.63
2018-01-02T06:44:09.719Z,1.50
2018-01-02T06:46:37.834Z,2.80
2018-01-02T06:49:05.984Z,2.10
2018-01-02T06:51:34.130Z,1.90
2018-01-02T06:54:02.265Z,2.23
2018-01-02T06:56:30.392Z,1.33
2018-01-02T06:58:59.293Z,2.40
2018-01-02T07:01:27.422Z,3.78
2018-01-02T07:03:55.548Z,3.20
2018-01-02T07:06:23.664Z,2.50
2018-01-02T07:08:51.925Z,2.90
2018-01-02T07:11:20.072Z,3.97
2018-01-02T07:13:49.359Z,1.77
2018-01-02T07:16:17.526Z,2.05
2018-01-02T07:18:45.660Z,1.45
2018-01-02T07:21:13.800Z,1.20
2018-01-02T07:23:41.918Z,2.73
2018-01-02T07:26:10.053Z,1.70
2018-01-02T07:28:38.184Z,1.40
2018-01-02T07:31:06.333Z,1.50
2018-01-02T07:33:34.450Z,1.50
2018-01-02T07:36:03.350Z,2.57
2018-01-02T07:38:32.227Z,1.40
2018-01-02T07:41:00.401Z,2.25
2018-01-02T07:43:29.348Z,1.50
2018-01-02T07:45:58.182Z,1.93
2018-01-02T07:48:27.077Z,2.67
2018-01-02T07:50:55.213Z,1.62
2018-01-02T07:53:23.378Z,1.77
2018-01-02T07:55:51.503Z,1.77
2018-01-02T07:58:19.639Z,2.65
2018-01-02T08:00:47.759Z,1.93
2018-01-02T08:03:15.905Z,1.60
2018-01-02T08:05:44.016Z,2.43
2018-01-02T08:08:12.162Z,2.50
2018-01-02T08:10:40.258Z,1.57
2018-01-02T08:13:08.368Z,2.07
2018-01-02T08:15:36.510Z,3.10
2018-01-02T08:18:04.628Z,1.87
2018-01-02T08:20:33.516Z,2.33
2018-01-02T08:23:02.411Z,2.03
2018-01-02T08:25:31.315Z,1.97
2018-01-02T08:27:59.431Z,1.97
2018-01-02T08:30:27.555Z,2.57
2018-01-02T08:32:55.738Z,2.30
2018-01-02T08:35:23.864Z,3.23
2018-01-02T08:37:52.741Z,1.90
2018-01-02T08:40:20.874Z,2.90
2018-01-02T08:42:48.983Z,4.20
2018-01-02T08:45:17.118Z,2.63
2018-01-02T08:47:45.249Z,2.53
2018-01-02T08:50:14.245Z,2.50
2018-01-02T08:52:43.152Z,3.00
2018-01-02T08:55:11.284Z,2.40
2018-01-02T08:57:39.413Z,4.90
2018-01-02T09:00:07.557Z,6.13
2018-01-02T09:02:35.778Z,3.70
2018-01-02T09:05:03.898Z,4.97
2018-01-02T09:07:32.029Z,3.03
2018-01-02T09:10:00.150Z,3.20
2018-01-02T09:12:33.890Z,4.27
2018-01-02T09:15:02.015Z,4.10
2018-01-02T09:17:30.181Z,2.60
2018-01-02T09:19:58.293Z,3.65
2018-01-02T09:22:26.426Z,3.13
2018-01-02T09:24:54.573Z,4.17
2018-01-02T09:27:22.740Z,4.03
2018-01-02T09:29:50.862Z,3.63
2018-01-02T09:32:18.985Z,2.07
2018-01-02T09:34:47.121Z,3.57
2018-01-02T09:37:15.234Z,4.10
2018-01-02T09:39:43.370Z,2.10
2018-01-02T09:42:11.477Z,2.80
2018-01-02T09:44:39.601Z,1.60
2018-01-02T09:47:07.751Z,3.90
2018-01-02T09:49:35.888Z,1.90
2018-01-02T09:52:03.993Z,2.13
2018-01-02T09:54:32.120Z,2.43
2018-01-02T09:57:00.239Z,2.30
2018-01-02T09:59:28.378Z,3.37
2018-01-02T10:01:57.265Z,2.20
2018-01-02T10:04:26.153Z,2.73
2018-01-02T10:06:54.286Z,2.30
2018-01-02T10:09:22.406Z,2.20
2018-01-02T10:11:50.637Z,3.03
2018-01-02T10:14:19.578Z,2.40
2018-01-02T10:16:47.722Z,2.10
2018-01-02T10:19:15.839Z,2.40
2018-01-02T10:21:43.980Z,2.50
2018-01-02T10:24:12.087Z,2.30
2018-01-02T10:26:41.300Z,3.83
2018-01-02T10:29:09.412Z,2.30
2018-01-02T10:31:38.295Z,2.10
2018-01-02T10:34:06.433Z,2.30
2018-01-02T10:36:34.542Z,2.43
2018-01-02T10:39:03.438Z,2.20
2018-01-02T10:41:32.349Z,2.33
2018-01-02T10:44:00.474Z,3.53
2018-01-02T10:46:28.590Z,4.33
2018-01-02T10:48:56.725Z,2.50
2018-01-02T10:51:25.612Z,2.08
2018-01-02T10:53:53.757Z,2.00
2018-01-02T10:56:21.876Z,2.20
2018-01-02T10:58:50.015Z,3.25
2018-01-02T11:01:25.372Z,2.30
2018-01-02T11:03:53.613Z,3.00
2018-01-02T11:06:21.828Z,5.23
2018-01-02T11:08:49.992Z,3.20
2018-01-02T11:11:20.130Z,2.30
2018-01-02T11:13:48.249Z,2.20
2018-01-02T11:16:16.422Z,2.67
2018-01-02T11:18:44.538Z,3.60
2018-01-02T11:21:13.441Z,3.70
2018-01-02T11:23:41.564Z,2.53
2018-01-02T11:26:09.698Z,3.10
2018-01-02T11:28:37.809Z,3.10
2018-01-02T11:31:05.948Z,3.67
2018-01-02T11:33:34.064Z,3.27
2018-01-02T11:36:02.180Z,8.03
2018-01-02T11:38:30.328Z,2.80
2018-01-02T11:40:59.205Z,6.23
2018-01-02T11:43:28.091Z,2.40
2018-01-02T11:45:56.977Z,3.00
2018-01-02T11:48:25.113Z,3.70
2018-01-02T11:50:53.233Z,3.00
2018-01-02T11:53:22.140Z,3.60
2018-01-02T11:55:50.264Z,5.20
2018-01-02T11:58:18.389Z,2.90
2018-01-02T12:00:46.500Z,3.77
2018-01-02T12:03:14.613Z,2.50
2018-01-02T12:05:42.746Z,3.20
2018-01-02T12:08:10.862Z,3.63
2018-01-02T12:10:38.997Z,2.80
2018-01-02T12:13:07.105Z,3.50
2018-01-02T12:15:35.240Z,3.50
2018-01-02T12:18:03.357Z,2.90
2018-01-02T12:20:31.492Z,2.83
2018-01-02T12:22:59.600Z,2.50
2018-01-02T12:25:28.569Z,3.35
2018-01-02T12:27:57.448Z,2.33
2018-01-02T12:30:26.346Z,3.73
2018-01-02T12:32:55.251Z,3.67
2018-01-02T12:35:23.392Z,3.50
2018-01-02T12:37:52.273Z,3.30
2018-01-02T12:40:20.428Z,2.23
2018-01-02T12:42:48.563Z,2.50
2018-01-02T12:45:16.675Z,3.30
2018-01-02T12:47:44.809Z,2.20
2018-01-02T12:50:13.034Z,4.23
2018-01-02T12:52:41.157Z,2.70
2018-01-02T12:55:09.377Z,3.00
2018-01-02T12:57:37.528Z,3.37
2018-01-02T13:00:05.714Z,2.43
2018-01-02T13:02:33.933Z,3.50
2018-01-02T13:05:02.114Z,2.60
2018-01-02T13:07:30.274Z,3.43
2018-01-02T13:09:58.994Z,3.27
2018-01-02T13:12:27.206Z,5.00
2018-01-02T13:14:55.369Z,2.80
2018-01-02T13:17:23.569Z,6.10
2018-01-02T13:19:51.766Z,5.73
2018-01-02T13:22:19.917Z,5.83
2018-01-02T13:24:48.129Z,2.57
2018-01-02T13:27:16.338Z,4.40
2018-01-02T13:29:44.601Z,4.63
2018-01-02T13:32:12.733Z,3.80
2018-01-02T13:34:40.945Z,3.67
2018-01-02T13:37:09.100Z,4.40
2018-01-02T13:39:37.240Z,4.10
2018-01-02T13:42:05.481Z,6.13
2018-01-02T13:44:33.709Z,7.70
2018-01-02T13:47:01.850Z,3.20
2018-01-02T13:49:29.974Z,4.40
2018-01-02T13:51:58.118Z,4.40
2018-01-02T13:54:26.225Z,2.70
2018-01-02T13:56:54.367Z,4.73
2018-01-02T13:59:22.475Z,2.47
2018-01-02T14:01:51.392Z,2.77
2018-01-02T14:04:19.514Z,4.00
2018-01-02T14:06:47.623Z,2.63
2018-01-02T14:09:16.517Z,2.57
2018-01-02T14:11:44.633Z,2.53
2018-01-02T14:14:13.145Z,3.17
2018-01-02T14:16:41.256Z,5.87
2018-01-02T14:19:09.407Z,4.57
2018-01-02T14:21:38.363Z,2.60
2018-01-02T14:24:08.038Z,4.83
2018-01-02T14:26:36.177Z,4.40
2018-01-02T14:29:05.155Z,3.00
2018-01-02T14:31:33.302Z,3.73
2018-01-02T14:34:01.426Z,3.40
2018-01-02T14:36:29.569Z,3.87
2018-01-02T14:38:58.514Z,2.37
2018-01-02T14:41:26.729Z,2.47
2018-01-02T14:43:54.861Z,2.33
2018-01-02T14:46:22.982Z,2.20
2018-01-02T14:48:52.221Z,2.73
2018-01-02T14:51:20.348Z,2.13
2018-01-02T14:53:49.224Z,3.57
2018-01-02T14:56:17.381Z,2.10
2018-01-02T14:58:45.505Z,4.13
2018-01-02T15:01:13.686Z,2.50
2018-01-02T15:03:41.814Z,4.67
2018-01-02T15:06:09.976Z,2.00
2018-01-02T15:08:38.097Z,2.93
2018-01-02T15:11:06.220Z,3.62
2018-01-02T15:13:34.353Z,4.53
2018-01-02T15:16:02.493Z,2.30
2018-01-02T15:18:30.642Z,2.07
2018-01-02T15:20:59.940Z,2.43
2018-01-02T15:23:28.069Z,3.10
2018-01-02T15:25:56.243Z,3.47
2018-01-02T15:28:24.396Z,2.22
2018-01-02T15:30:52.539Z,8.40
2018-01-02T15:33:21.563Z,6.65
2018-01-02T15:35:49.729Z,3.60
2018-01-02T15:38:17.886Z,4.40
2018-01-02T15:40:46.024Z,5.57
2018-01-02T15:43:14.240Z,2.15
2018-01-02T15:45:42.379Z,6.00
2018-01-02T15:48:10.502Z,4.93
2018-01-02T15:50:38.649Z,2.53
2018-01-02T15:53:06.751Z,6.03
2018-01-02T15:55:34.928Z,5.55
2018-01-02T15:58:03.079Z,3.17
2018-01-02T16:00:31.224Z,3.15
2018-01-02T16:02:59.382Z,4.00
2018-01-02T16:05:28.264Z,3.30
2018-01-02T16:07:57.288Z,3.28
2018-01-02T16:10:25.433Z,3.55
2018-01-02T16:12:53.617Z,3.47
2018-01-02T16:15:22.547Z,4.53
2018-01-02T16:17:50.728Z,3.35
2018-01-02T16:20:18.903Z,6.03
2018-01-02T16:22:47.038Z,4.62
2018-01-02T16:25:15.229Z,7.17
2018-01-02T16:27:43.390Z,4.22
2018-01-02T16:30:11.538Z,7.72
2018-01-02T16:32:40.511Z,4.80
2018-01-02T16:35:08.626Z,5.05
2018-01-02T16:37:36.765Z,6.23
2018-01-02T16:40:05.699Z,6.40
2018-01-02T16:42:33.858Z,11.23
2018-01-02T16:45:02.008Z,3.83
2018-01-02T16:47:30.980Z,3.20
2018-01-02T16:49:59.128Z,6.03
2018-01-02T16:52:27.268Z,5.05
2018-01-02T16:54:55.494Z,4.40
2018-01-02T16:57:23.629Z,9.03
2018-01-02T16:59:51.804Z,5.30
2018-01-02T17:02:20.012Z,3.93
2018-01-02T17:04:48.151Z,8.43
2018-01-02T17:07:16.327Z,3.53
2018-01-02T17:09:44.499Z,8.05
2018-01-02T17:14:55.070Z,4.25
2018-01-02T17:17:23.217Z,10.40
2018-01-02T17:19:51.324Z,7.30
2018-01-02T17:22:19.540Z,5.63
2018-01-02T17:24:48.499Z,6.00
2018-01-02T17:27:16.633Z,5.43
2018-01-02T17:29:44.824Z,3.67
2018-01-02T17:32:13.001Z,6.68
2018-01-02T17:34:41.163Z,10.93
2018-01-02T17:37:09.392Z,12.50
2018-01-02T17:39:37.613Z,6.75
2018-01-02T17:42:05.780Z,6.32
2018-01-02T17:44:33.961Z,9.32
2018-01-02T17:47:02.153Z,3.17
2018-01-02T17:49:30.332Z,5.35
2018-01-02T17:51:58.523Z,4.40
2018-01-02T17:54:26.702Z,4.60
2018-01-02T17:56:54.967Z,4.15
2018-01-02T17:59:23.144Z,5.70
2018-01-02T18:01:52.146Z,6.75
2018-01-02T18:04:20.415Z,9.32
2018-01-02T18:06:49.409Z,9.43
2018-01-02T18:09:17.584Z,6.47
2018-01-02T18:11:46.542Z,10.68
2018-01-02T18:14:14.728Z,5.50
2018-01-02T18:16:42.879Z,4.50
2018-01-02T18:19:11.051Z,4.72
2018-01-02T18:21:39.211Z,4.90
2018-01-02T18:24:07.400Z,7.93
2018-01-02T18:26:35.580Z,4.80
2018-01-02T18:29:03.700Z,3.53
2018-01-02T18:31:32.004Z,4.28
2018-01-02T18:34:00.173Z,8.85
2018-01-02T18:36:28.343Z,10.73
2018-01-02T18:38:56.529Z,10.75
2018-01-02T18:41:24.759Z,5.97
2018-01-02T18:43:52.979Z,6.12
2018-01-02T18:46:27.735Z,4.90
2018-01-02T18:49:00.090Z,8.03
2018-01-02T18:51:34.428Z,5.43
2018-01-02T18:54:16.342Z,4.78
2018-01-02T18:57:00.350Z,9.27
2018-01-02T18:59:43.954Z,12.48
2018-01-02T19:02:14.919Z,28.70
2018-01-02T19:04:43.071Z,16.05
2018-01-02T19:07:11.259Z,20.98
2018-01-02T19:09:39.485Z,7.65
2018-01-02T19:12:07.672Z,10.15
2018-01-02T19:14:35.780Z,5.43
2018-01-02T19:17:04.714Z,3.83
2018-01-02T19:19:32.840Z,9.10
2018-01-02T19:22:01.003Z,5.03
2018-01-02T19:24:29.135Z,4.40
2018-01-02T19:26:57.303Z,4.95
2018-01-02T19:29:25.475Z,7.55
2018-01-02T19:31:53.636Z,4.28
2018-01-02T19:34:22.567Z,7.00
2018-01-02T19:36:50.805Z,9.27
2018-01-02T19:39:19.748Z,7.35
2018-01-02T19:41:47.907Z,6.28
2018-01-02T19:44:16.088Z,7.75
2018-01-02T19:46:44.240Z,5.03
2018-01-02T19:49:12.423Z,5.85
2018-01-02T19:51:40.584Z,8.38
2018-01-02T19:54:08.741Z,5.62
2018-01-02T19:56:36.914Z,4.05
2018-01-02T19:59:05.092Z,5.82
2018-01-02T20:01:33.356Z,7.32
2018-01-02T20:04:01.681Z,4.12
2018-01-02T20:06:29.848Z,6.35
2018-01-02T20:08:58.007Z,5.37
2018-01-02T20:11:26.204Z,3.30
2018-01-02T20:13:54.637Z,7.75
2018-01-02T20:16:23.736Z,5.25
2018-01-02T20:18:51.898Z,5.85
2018-01-02T20:21:20.445Z,8.63
2018-01-02T20:23:49.391Z,3.95
2018-01-02T20:26:17.571Z,5.15
2018-01-02T20:28:45.756Z,6.40
2018-01-02T20:31:14.281Z,11.23
2018-01-02T20:33:43.637Z,8.75
2018-01-02T20:36:11.798Z,5.00
2018-01-02T20:38:39.964Z,8.60
2018-01-02T20:41:08.126Z,8.90
2018-01-02T20:43:38.172Z,8.05
2018-01-02T20:46:09.826Z,6.53
2018-01-02T20:48:38.004Z,10.32
2018-01-02T20:51:06.667Z,6.15
2018-01-02T20:53:34.837Z,5.00
2018-01-02T20:56:03.008Z,7.03
2018-01-02T20:58:31.244Z,9.75
2018-01-02T21:01:00.036Z,7.28
2018-01-02T21:03:28.244Z,5.55
2018-01-02T21:05:59.928Z,5.28
2018-01-02T21:08:29.516Z,8.95
2018-01-02T21:10:58.105Z,5.18
2018-01-02T21:13:27.776Z,10.57
2018-01-02T21:15:57.518Z,7.87
2018-01-02T21:18:25.688Z,5.07
2018-01-02T21:20:53.873Z,4.70
2018-01-02T21:23:22.028Z,6.85
2018-01-02T21:25:50.208Z,8.63
2018-01-02T21:28:18.371Z,9.00
2018-01-02T21:30:46.592Z,13.15
2018-01-02T21:33:14.754Z,7.07
2018-01-02T21:35:43.732Z,5.22
2018-01-02T21:38:11.986Z,5.32
2018-01-02T21:40:40.173Z,6.55
2018-01-02T21:43:08.332Z,5.80
2018-01-02T21:45:36.504Z,6.68
2018-01-02T21:48:04.680Z,8.15
2018-01-02T21:50:32.895Z,10.70
2018-01-02T21:53:01.073Z,5.97
2018-01-02T21:55:29.224Z,5.82
2018-01-02T21:57:58.171Z,9.68
2018-01-02T22:00:27.087Z,6.10
2018-01-02T22:02:55.267Z,11.55
2018-01-02T22:05:24.196Z,5.90
2018-01-02T22:07:52.401Z,8.50
2018-01-02T22:10:20.561Z,3.40
2018-01-02T22:12:48.740Z,4.60
2018-01-02T22:15:16.908Z,6.57
2018-01-02T22:17:45.112Z,8.00
2018-01-02T22:20:13.272Z,4.22
2018-01-02T22:22:41.459Z,8.85
2018-01-02T22:25:09.640Z,5.87
2018-01-02T22:27:37.800Z,7.35
2018-01-02T22:30:05.998Z,7.55
2018-01-02T22:32:34.965Z,7.30
2018-01-02T22:35:03.190Z,5.10
2018-01-02T22:37:31.414Z,5.40
2018-01-02T22:39:59.662Z,7.22
2018-01-02T22:42:27.885Z,8.27
2018-01-02T22:44:56.829Z,8.63
2018-01-02T22:47:25.055Z,5.53
2018-01-02T22:49:53.311Z,6.55
2018-01-02T22:52:22.295Z,7.20
2018-01-02T22:54:51.286Z,6.22
2018-01-02T22:57:19.457Z,5.30
2018-01-02T22:59:47.643Z,7.95
2018-01-02T23:02:16.577Z,6.07
2018-01-02T23:04:44.777Z,3.97
2018-01-02T23:07:12.952Z,5.10
2018-01-02T23:09:41.122Z,7.28
2018-01-02T23:12:09.340Z,5.78
2018-01-02T23:14:37.520Z,8.07
2018-01-02T23:17:05.727Z,2.95
2018-01-02T23:19:33.921Z,6.50
2018-01-02T23:22:02.077Z,7.18
2018-01-02T23:24:33.155Z,8.73
2018-01-02T23:27:02.104Z,8.13
2018-01-02T23:29:30.279Z,7.57
2018-01-02T23:31:58.440Z,10.38
2018-01-02T23:34:26.608Z,3.30
2018-01-02T23:36:54.765Z,6.75
2018-01-02T23:39:22.944Z,6.55
2018-01-02T23:41:51.347Z,5.70
2018-01-02T23:44:19.514Z,4.47
2018-01-02T23:46:47.681Z,7.68
2018-01-02T23:49:15.852Z,3.92
2018-01-02T23:51:44.009Z,9.60
2018-01-02T23:54:12.156Z,4.70
2018-01-02T23:56:40.324Z,3.10
2018-01-02T23:59:09.251Z,4.70
